createdAt,value
2022-07-26T00:00:34.772Z,19.77
2022-07-26T00:01:34.806Z,19.82
2022-07-26T00:02:34.852Z,19.66
2022-07-26T00:03:34.725Z,19.82
2022-07-26T00:04:34.718Z,19.87
2022-07-26T00:05:34.702Z,19.77
2022-07-26T00:06:34.700Z,19.82
2022-07-26T00:07:36.621Z,19.77
2022-07-26T00:08:34.661Z,20.68
2022-07-26T00:09:34.652Z,20.14
2022-07-26T00:10:34.641Z,20.25
2022-07-26T00:11:34.622Z,19.82
2022-07-26T00:12:34.614Z,19.87
2022-07-26T00:13:34.593Z,19.82
2022-07-26T00:14:34.583Z,20.25
2022-07-26T00:15:34.582Z,19.87
2022-07-26T00:16:34.619Z,20.14
2022-07-26T00:17:34.541Z,19.93
2022-07-26T00:18:34.543Z,19.87
2022-07-26T00:19:34.520Z,20.25
2022-07-26T00:20:34.508Z,19.77
2022-07-26T00:21:34.491Z,19.87
2022-07-26T00:22:34.531Z,19.77
2022-07-26T00:23:34.464Z,19.82
2022-07-26T00:24:35.623Z,19.77
2022-07-26T00:25:34.431Z,19.66
2022-07-26T00:26:34.428Z,19.77
2022-07-26T00:27:34.409Z,19.66
2022-07-26T00:28:34.397Z,19.77
2022-07-26T00:29:34.385Z,19.82
2022-07-26T00:30:34.379Z,19.82
2022-07-26T00:31:34.449Z,19.87
2022-07-26T00:32:34.343Z,19.98
2022-07-26T00:33:34.337Z,19.82
2022-07-26T00:34:34.327Z,19.93
2022-07-26T00:35:34.309Z,19.82
2022-07-26T00:36:34.306Z,19.77
2022-07-26T00:37:34.287Z,19.87
2022-07-26T00:38:34.628Z,19.87
2022-07-26T00:39:34.252Z,19.77
2022-07-26T00:40:34.251Z,19.77
2022-07-26T00:41:34.227Z,19.77
2022-07-26T00:42:34.214Z,20.25
2022-07-26T00:43:34.204Z,19.87
2022-07-26T00:44:34.187Z,19.82
2022-07-26T00:45:34.181Z,19.82
2022-07-26T00:46:34.245Z,19.71
2022-07-26T00:47:34.151Z,19.55
2022-07-26T00:48:34.156Z,20.25
2022-07-26T00:49:34.130Z,19.82
2022-07-26T00:50:34.112Z,19.87
2022-07-26T00:51:34.101Z,19.93
2022-07-26T00:52:34.084Z,19.77
2022-07-26T00:53:34.073Z,19.87
2022-07-26T00:54:34.057Z,20.14
2022-07-26T00:55:34.056Z,19.82
2022-07-26T00:56:34.041Z,19.71
2022-07-26T00:57:34.024Z,19.82
2022-07-26T00:58:34.000Z,19.82
2022-07-26T00:59:33.993Z,19.60
2022-07-26T01:00:33.977Z,19.55
2022-07-26T01:01:34.117Z,19.82
2022-07-26T01:02:34.049Z,19.82
2022-07-26T01:03:39.380Z,19.98
2022-07-26T01:04:33.922Z,19.87
2022-07-26T01:05:33.927Z,19.98
2022-07-26T01:06:33.900Z,19.82
2022-07-26T01:07:33.899Z,19.77
2022-07-26T01:08:33.883Z,19.87
2022-07-26T01:09:33.861Z,19.77
2022-07-26T01:10:33.864Z,19.71
2022-07-26T01:11:33.839Z,19.77
2022-07-26T01:12:33.824Z,19.82
2022-07-26T01:13:35.491Z,19.60
2022-07-26T01:14:33.794Z,19.55
2022-07-26T01:15:33.786Z,19.87
2022-07-26T01:16:33.822Z,19.87
2022-07-26T01:17:34.353Z,19.98
2022-07-26T01:18:33.749Z,19.82
2022-07-26T01:19:33.739Z,19.55
2022-07-26T01:20:33.717Z,19.60
2022-07-26T01:21:33.706Z,19.60
2022-07-26T01:22:33.692Z,20.03
2022-07-26T01:23:33.684Z,19.87
2022-07-26T01:24:33.660Z,20.03
2022-07-26T01:25:33.652Z,19.39
2022-07-26T01:26:34.659Z,19.82
2022-07-26T01:27:34.057Z,19.98
2022-07-26T01:28:33.611Z,19.77
2022-07-26T01:29:35.919Z,19.71
2022-07-26T01:30:33.585Z,19.77
2022-07-26T01:31:33.635Z,19.50
2022-07-26T01:32:33.568Z,19.66
2022-07-26T01:33:33.553Z,19.93
2022-07-26T01:34:33.534Z,19.66
2022-07-26T01:35:33.525Z,19.82
2022-07-26T01:36:33.515Z,19.77
2022-07-26T01:37:33.502Z,19.77
2022-07-26T01:38:33.478Z,19.60
2022-07-26T01:39:33.475Z,19.66
2022-07-26T01:40:33.452Z,19.66
2022-07-26T01:41:37.654Z,19.55
2022-07-26T01:42:33.424Z,19.66
2022-07-26T01:43:33.625Z,19.66
2022-07-26T01:44:33.402Z,19.60
2022-07-26T01:45:33.450Z,19.77
2022-07-26T01:46:33.379Z,19.66
2022-07-26T01:47:33.369Z,19.77
2022-07-26T01:48:33.445Z,19.66
2022-07-26T01:49:33.345Z,19.87
2022-07-26T01:50:33.321Z,19.77
2022-07-26T01:51:33.314Z,19.44
2022-07-26T01:52:33.295Z,19.77
2022-07-26T01:53:33.286Z,19.77
2022-07-26T01:54:33.274Z,19.77
2022-07-26T01:55:33.269Z,19.55
2022-07-26T01:56:33.253Z,19.82
2022-07-26T01:57:33.238Z,19.55
2022-07-26T01:58:33.220Z,19.55
2022-07-26T01:59:33.210Z,19.87
2022-07-26T02:00:33.196Z,19.82
2022-07-26T02:01:38.311Z,19.93
2022-07-26T02:02:33.328Z,19.82
2022-07-26T02:03:33.162Z,19.55
2022-07-26T02:04:33.138Z,19.66
2022-07-26T02:05:33.128Z,19.60
2022-07-26T02:06:33.116Z,19.66
2022-07-26T02:07:33.110Z,19.60
2022-07-26T02:08:33.085Z,19.60
2022-07-26T02:09:38.074Z,19.82
2022-07-26T02:10:33.062Z,19.87
2022-07-26T02:11:33.057Z,19.93
2022-07-26T02:12:33.040Z,19.55
2022-07-26T02:13:33.029Z,19.87
2022-07-26T02:14:33.014Z,19.71
2022-07-26T02:15:33.049Z,19.50
2022-07-26T02:16:32.986Z,19.71
2022-07-26T02:17:32.973Z,19.28
2022-07-26T02:18:32.960Z,19.71
2022-07-26T02:19:32.952Z,19.55
2022-07-26T02:20:32.930Z,19.55
2022-07-26T02:21:32.925Z,19.82
2022-07-26T02:22:32.906Z,19.66
2022-07-26T02:23:32.899Z,19.39
2022-07-26T02:24:32.883Z,19.87
2022-07-26T02:25:32.872Z,20.20
2022-07-26T02:26:32.852Z,19.66
2022-07-26T02:27:32.862Z,19.66
2022-07-26T02:28:32.824Z,19.66
2022-07-26T02:29:32.815Z,19.60
2022-07-26T02:30:32.802Z,19.60
2022-07-26T02:31:32.882Z,19.71
2022-07-26T02:32:32.775Z,19.71
2022-07-26T02:33:32.781Z,19.77
2022-07-26T02:34:34.078Z,19.66
2022-07-26T02:35:32.744Z,19.82
2022-07-26T02:36:32.728Z,19.71
2022-07-26T02:37:32.714Z,19.71
2022-07-26T02:38:32.700Z,19.55
2022-07-26T02:39:32.688Z,19.82
2022-07-26T02:40:32.676Z,19.12
2022-07-26T02:41:32.658Z,19.98
2022-07-26T02:42:32.652Z,19.60
2022-07-26T02:43:32.635Z,19.66
2022-07-26T02:44:32.621Z,19.66
2022-07-26T02:45:32.606Z,19.39
2022-07-26T02:46:32.689Z,19.71
2022-07-26T02:47:32.585Z,19.07
2022-07-26T02:48:32.796Z,19.60
2022-07-26T02:49:32.563Z,19.55
2022-07-26T02:50:32.546Z,19.71
2022-07-26T02:51:32.531Z,19.98
2022-07-26T02:52:32.514Z,19.55
2022-07-26T02:53:32.500Z,19.66
2022-07-26T02:54:32.489Z,19.60
2022-07-26T02:55:32.477Z,19.60
2022-07-26T02:56:32.467Z,19.55
2022-07-26T02:57:45.402Z,19.23
2022-07-26T02:58:32.447Z,19.50
2022-07-26T02:59:32.428Z,19.55
2022-07-26T03:00:32.414Z,19.66
2022-07-26T03:01:32.482Z,19.17
2022-07-26T03:02:32.425Z,19.60
2022-07-26T03:03:32.378Z,19.55
2022-07-26T03:04:32.364Z,19.28
2022-07-26T03:05:32.342Z,19.12
2022-07-26T03:06:32.334Z,19.98
2022-07-26T03:07:32.322Z,19.39
2022-07-26T03:08:32.313Z,19.66
2022-07-26T03:09:32.296Z,19.17
2022-07-26T03:10:32.295Z,19.28
2022-07-26T03:11:32.268Z,19.60
2022-07-26T03:12:32.267Z,19.77
2022-07-26T03:13:32.239Z,19.66
2022-07-26T03:14:32.232Z,19.23
2022-07-26T03:15:32.309Z,19.17
2022-07-26T03:16:32.288Z,19.17
2022-07-26T03:17:32.324Z,19.17
2022-07-26T03:18:32.177Z,19.17
2022-07-26T03:19:32.163Z,19.12
2022-07-26T03:20:32.151Z,19.60
2022-07-26T03:21:32.143Z,19.39
2022-07-26T03:22:32.132Z,19.17
2022-07-26T03:23:32.115Z,19.60
2022-07-26T03:24:32.105Z,19.60
2022-07-26T03:25:32.082Z,19.71
2022-07-26T03:26:32.102Z,19.17
2022-07-26T03:27:32.060Z,19.39
2022-07-26T03:28:32.050Z,19.60
2022-07-26T03:29:32.040Z,19.60
2022-07-26T03:30:32.025Z,19.28
2022-07-26T03:31:32.087Z,19.55
2022-07-26T03:32:32.006Z,19.17
2022-07-26T03:33:31.984Z,19.17
2022-07-26T03:34:31.977Z,19.17
2022-07-26T03:35:36.678Z,19.55
2022-07-26T03:36:31.946Z,19.60
2022-07-26T03:37:46.191Z,19.55
2022-07-26T03:38:31.920Z,19.17
2022-07-26T03:39:31.906Z,19.60
2022-07-26T03:40:31.895Z,19.71
2022-07-26T03:41:31.879Z,19.55
2022-07-26T03:42:31.865Z,19.55
2022-07-26T03:43:31.853Z,19.23
2022-07-26T03:44:31.840Z,19.87
2022-07-26T03:45:31.832Z,19.07
2022-07-26T03:46:31.902Z,19.66
2022-07-26T03:47:31.804Z,19.34
2022-07-26T03:48:31.878Z,19.77
2022-07-26T03:49:31.774Z,19.34
2022-07-26T03:50:31.770Z,19.28
2022-07-26T03:51:31.759Z,19.17
2022-07-26T03:52:31.741Z,19.23
2022-07-26T03:53:31.727Z,19.60
2022-07-26T03:54:31.710Z,19.17
2022-07-26T03:55:31.693Z,19.17
2022-07-26T03:56:31.698Z,19.12
2022-07-26T03:57:31.672Z,19.71
2022-07-26T03:58:31.668Z,19.66
2022-07-26T03:59:31.646Z,19.12
2022-07-26T04:00:31.642Z,19.55
2022-07-26T04:01:31.696Z,19.28
2022-07-26T04:02:31.715Z,19.55
2022-07-26T04:03:31.589Z,19.66
2022-07-26T04:04:31.579Z,19.60
2022-07-26T04:05:31.568Z,18.96
2022-07-26T04:06:31.577Z,19.60
2022-07-26T04:07:31.536Z,19.55
2022-07-26T04:08:31.533Z,19.34
2022-07-26T04:09:31.514Z,19.66
2022-07-26T04:10:31.504Z,19.23
2022-07-26T04:11:31.485Z,19.34
2022-07-26T04:12:31.484Z,19.39
2022-07-26T04:13:31.459Z,19.07
2022-07-26T04:14:31.450Z,19.23
2022-07-26T04:15:31.434Z,19.34
2022-07-26T04:16:31.514Z,19.66
2022-07-26T04:17:31.415Z,19.28
2022-07-26T04:18:31.406Z,19.77
2022-07-26T04:19:31.391Z,19.44
2022-07-26T04:20:31.376Z,19.28
2022-07-26T04:21:31.361Z,19.55
2022-07-26T04:22:31.351Z,19.12
2022-07-26T04:23:31.340Z,19.01
2022-07-26T04:24:31.323Z,19.28
2022-07-26T04:25:38.571Z,19.17
2022-07-26T04:26:31.295Z,19.01
2022-07-26T04:27:31.276Z,19.12
2022-07-26T04:28:31.268Z,19.17
2022-07-26T04:29:31.253Z,19.23
2022-07-26T04:30:31.283Z,18.80
2022-07-26T04:31:36.249Z,19.17
2022-07-26T04:32:31.222Z,19.28
2022-07-26T04:33:31.199Z,19.23
2022-07-26T04:34:31.192Z,19.23
2022-07-26T04:35:31.178Z,19.66
2022-07-26T04:36:31.158Z,19.07
2022-07-26T04:37:31.144Z,18.91
2022-07-26T04:38:31.136Z,19.23
2022-07-26T04:39:31.118Z,19.17
2022-07-26T04:40:31.110Z,19.12
2022-07-26T04:41:31.097Z,19.23
2022-07-26T04:42:31.097Z,19.28
2022-07-26T04:43:31.224Z,19.23
2022-07-26T04:44:31.056Z,19.23
2022-07-26T04:45:31.046Z,19.44
2022-07-26T04:46:31.142Z,19.01
2022-07-26T04:47:31.017Z,19.28
2022-07-26T04:48:31.036Z,19.23
2022-07-26T04:49:30.994Z,19.12
2022-07-26T04:50:30.986Z,19.17
2022-07-26T04:51:30.973Z,18.96
2022-07-26T04:52:30.962Z,18.96
2022-07-26T04:53:31.042Z,18.96
2022-07-26T04:54:30.941Z,18.75
2022-07-26T04:55:30.924Z,19.17
2022-07-26T04:56:30.902Z,19.12
2022-07-26T04:57:30.884Z,19.17
2022-07-26T04:58:30.875Z,19.44
2022-07-26T04:59:32.753Z,19.07
2022-07-26T05:00:30.850Z,19.34
2022-07-26T05:01:30.917Z,50.33
2022-07-26T05:02:30.961Z,50.27
2022-07-26T05:03:30.810Z,50.65
2022-07-26T05:04:30.804Z,31.10
2022-07-26T05:05:30.800Z,28.25
2022-07-26T05:06:30.776Z,27.50
2022-07-26T05:07:30.766Z,26.48
2022-07-26T05:08:30.744Z,26.10
2022-07-26T05:09:30.738Z,26.10
2022-07-26T05:10:30.719Z,25.46
2022-07-26T05:11:30.708Z,25.41
2022-07-26T05:12:30.696Z,25.19
2022-07-26T05:13:31.131Z,24.76
2022-07-26T05:14:30.665Z,24.60
2022-07-26T05:15:35.475Z,24.81
2022-07-26T05:16:30.667Z,23.96
2022-07-26T05:17:30.626Z,24.17
2022-07-26T05:18:31.917Z,23.36
2022-07-26T05:19:30.600Z,23.74
2022-07-26T05:20:30.583Z,23.63
2022-07-26T05:21:30.581Z,23.69
2022-07-26T05:22:30.564Z,23.58
2022-07-26T05:23:30.555Z,23.20
2022-07-26T05:24:30.538Z,23.36
2022-07-26T05:25:30.526Z,23.36
2022-07-26T05:26:30.511Z,23.74
2022-07-26T05:27:30.499Z,23.31
2022-07-26T05:28:30.483Z,23.26
2022-07-26T05:29:30.470Z,23.53
2022-07-26T05:30:30.488Z,23.36
2022-07-26T05:31:30.443Z,22.67
2022-07-26T05:32:30.452Z,23.42
2022-07-26T05:33:30.423Z,23.31
2022-07-26T05:34:30.405Z,22.67
2022-07-26T05:35:30.395Z,22.83
2022-07-26T05:36:30.382Z,22.34
2022-07-26T05:37:30.366Z,22.34
2022-07-26T05:38:30.350Z,22.61
2022-07-26T05:39:30.344Z,22.72
2022-07-26T05:40:30.322Z,22.40
2022-07-26T05:41:30.315Z,22.77
2022-07-26T05:42:30.294Z,22.45
2022-07-26T05:43:40.994Z,22.34
2022-07-26T05:44:30.431Z,22.34
2022-07-26T05:45:30.315Z,22.45
2022-07-26T05:46:30.312Z,21.65
2022-07-26T05:47:30.241Z,21.97
2022-07-26T05:48:30.245Z,22.34
2022-07-26T05:49:40.424Z,22.08
2022-07-26T05:50:30.195Z,22.40
2022-07-26T05:51:30.194Z,22.02
2022-07-26T05:52:30.187Z,22.02
2022-07-26T05:53:30.157Z,21.97
2022-07-26T05:54:30.140Z,21.97
2022-07-26T05:55:30.128Z,21.97
2022-07-26T05:56:30.114Z,21.86
2022-07-26T05:57:30.102Z,22.02
2022-07-26T05:58:30.187Z,21.43
2022-07-26T05:59:30.078Z,21.38
2022-07-26T06:00:30.066Z,21.97
2022-07-26T06:01:30.053Z,21.54
2022-07-26T06:02:30.067Z,21.43
2022-07-26T06:03:30.045Z,22.02
2022-07-26T06:04:30.124Z,21.43
2022-07-26T06:05:30.005Z,21.11
2022-07-26T06:06:29.989Z,21.38
2022-07-26T06:07:29.971Z,21.05
2022-07-26T06:08:29.965Z,21.43
2022-07-26T06:09:29.955Z,21.32
2022-07-26T06:10:29.935Z,21.48
2022-07-26T06:11:29.929Z,21.32
2022-07-26T06:12:29.908Z,21.32
2022-07-26T06:13:29.900Z,20.95
2022-07-26T06:14:29.888Z,20.95
2022-07-26T06:15:29.873Z,21.43
2022-07-26T06:16:29.861Z,21.22
2022-07-26T06:17:30.027Z,21.43
2022-07-26T06:18:29.828Z,21.32
2022-07-26T06:19:29.815Z,20.95
2022-07-26T06:20:29.799Z,21.38
2022-07-26T06:21:29.787Z,21.05
2022-07-26T06:22:29.774Z,20.89
2022-07-26T06:23:30.879Z,21.38
2022-07-26T06:24:29.748Z,20.95
2022-07-26T06:25:29.750Z,21.00
2022-07-26T06:26:29.736Z,21.00
2022-07-26T06:27:29.716Z,21.32
2022-07-26T06:28:29.699Z,21.43
2022-07-26T06:29:32.300Z,21.38
2022-07-26T06:30:29.673Z,21.38
2022-07-26T06:31:29.760Z,21.05
2022-07-26T06:32:29.649Z,20.84
2022-07-26T06:33:29.651Z,21.00
2022-07-26T06:34:29.620Z,21.38
2022-07-26T06:35:29.605Z,21.38
2022-07-26T06:36:30.991Z,20.62
2022-07-26T06:37:29.588Z,21.05
2022-07-26T06:38:29.574Z,21.11
2022-07-26T06:39:29.561Z,20.95
2022-07-26T06:40:29.542Z,20.95
2022-07-26T06:41:29.529Z,21.00
2022-07-26T06:42:29.511Z,21.00
2022-07-26T06:43:29.504Z,21.00
2022-07-26T06:44:29.487Z,20.52
2022-07-26T06:45:29.478Z,20.36
2022-07-26T06:46:29.515Z,20.95
2022-07-26T06:47:29.451Z,20.62
2022-07-26T06:48:29.489Z,21.00
2022-07-26T06:49:29.501Z,21.05
2022-07-26T06:50:29.467Z,20.52
2022-07-26T06:51:29.402Z,21.00
2022-07-26T06:52:29.385Z,20.73
2022-07-26T06:53:29.378Z,20.30
2022-07-26T06:54:29.360Z,20.57
2022-07-26T06:55:29.352Z,20.52
2022-07-26T06:56:29.334Z,20.57
2022-07-26T06:57:29.320Z,20.30
2022-07-26T06:58:29.311Z,20.57
2022-07-26T06:59:29.293Z,20.89
2022-07-26T07:00:29.276Z,20.68
2022-07-26T07:01:51.835Z,21.05
2022-07-26T07:02:30.275Z,21.00
2022-07-26T07:03:29.242Z,20.95
2022-07-26T07:04:29.359Z,21.16
2022-07-26T07:05:30.624Z,20.62
2022-07-26T07:06:29.208Z,20.62
2022-07-26T07:07:29.203Z,20.52
2022-07-26T07:08:29.181Z,21.00
2022-07-26T07:09:29.171Z,20.62
2022-07-26T07:10:29.183Z,20.62
2022-07-26T07:11:29.140Z,20.73
2022-07-26T07:12:29.127Z,20.62
2022-07-26T07:13:29.113Z,20.62
2022-07-26T07:14:29.095Z,20.62
2022-07-26T07:15:29.085Z,20.25
2022-07-26T07:16:29.167Z,20.25
2022-07-26T07:17:29.057Z,20.62
2022-07-26T07:18:29.046Z,20.68
2022-07-26T07:19:29.041Z,20.57
2022-07-26T07:20:29.022Z,20.25
2022-07-26T07:21:29.014Z,20.20
2022-07-26T07:22:28.998Z,20.30
2022-07-26T07:23:28.989Z,20.68
2022-07-26T07:24:28.968Z,20.30
2022-07-26T07:25:30.855Z,20.25
2022-07-26T07:26:28.943Z,20.09
2022-07-26T07:27:28.936Z,20.14
2022-07-26T07:28:28.919Z,20.36
2022-07-26T07:29:29.227Z,20.20
2022-07-26T07:30:28.896Z,20.14
2022-07-26T07:31:30.467Z,20.30
2022-07-26T07:32:28.902Z,20.25
2022-07-26T07:33:36.684Z,20.36
2022-07-26T07:34:28.843Z,20.14
2022-07-26T07:35:31.699Z,20.20
2022-07-26T07:36:28.816Z,20.20
2022-07-26T07:37:28.807Z,20.20
2022-07-26T07:38:28.790Z,20.36
2022-07-26T07:39:38.397Z,20.09
2022-07-26T07:40:30.155Z,19.82
2022-07-26T07:41:28.763Z,20.09
2022-07-26T07:42:28.739Z,19.98
2022-07-26T07:43:28.739Z,20.14
2022-07-26T07:44:28.757Z,20.09
2022-07-26T07:45:28.708Z,19.98
2022-07-26T07:46:28.728Z,20.20
2022-07-26T07:47:28.679Z,19.77
2022-07-26T07:48:28.722Z,20.25
2022-07-26T07:49:28.723Z,19.77
2022-07-26T07:50:28.670Z,20.14
2022-07-26T07:51:28.623Z,19.82
2022-07-26T07:52:28.610Z,19.66
2022-07-26T07:53:28.605Z,19.82
2022-07-26T07:54:28.589Z,19.60
2022-07-26T07:55:46.197Z,19.66
2022-07-26T07:56:29.588Z,19.82
2022-07-26T07:57:28.553Z,19.93
2022-07-26T07:58:28.545Z,19.77
2022-07-26T07:59:28.530Z,19.82
2022-07-26T08:00:28.521Z,19.93
2022-07-26T08:01:39.469Z,19.55
2022-07-26T08:02:29.518Z,19.60
2022-07-26T08:03:39.018Z,19.66
2022-07-26T08:04:29.592Z,19.93
2022-07-26T08:05:28.447Z,19.87
2022-07-26T08:06:28.432Z,19.87
2022-07-26T08:07:32.997Z,19.87
2022-07-26T08:08:28.405Z,19.55
2022-07-26T08:09:28.831Z,19.82
2022-07-26T08:10:28.389Z,19.55
2022-07-26T08:11:30.065Z,19.77
2022-07-26T08:12:28.366Z,19.60
2022-07-26T08:13:28.348Z,19.55
2022-07-26T08:14:28.332Z,19.71
2022-07-26T08:15:28.325Z,19.71
2022-07-26T08:16:28.471Z,19.93
2022-07-26T08:17:28.308Z,19.71
2022-07-26T08:18:28.286Z,19.55
2022-07-26T08:19:41.745Z,19.55
2022-07-26T08:20:28.259Z,19.77
2022-07-26T08:21:29.074Z,19.82
2022-07-26T08:22:28.234Z,19.17
2022-07-26T08:23:28.223Z,19.71
2022-07-26T08:24:28.212Z,19.34
2022-07-26T08:25:28.195Z,19.17
2022-07-26T08:26:28.179Z,19.66
2022-07-26T08:27:28.176Z,19.77
2022-07-26T08:28:46.756Z,19.23
2022-07-26T08:29:29.171Z,19.34
2022-07-26T08:30:28.136Z,19.17
2022-07-26T08:31:28.398Z,19.28
2022-07-26T08:32:28.110Z,19.60
2022-07-26T08:33:28.094Z,19.28
2022-07-26T08:34:28.080Z,19.39
2022-07-26T08:35:28.072Z,19.23
2022-07-26T08:36:32.306Z,19.17
2022-07-26T08:37:28.048Z,19.34
2022-07-26T08:38:28.032Z,19.01
2022-07-26T08:39:28.022Z,19.44
2022-07-26T08:40:28.006Z,19.28
2022-07-26T08:41:28.004Z,19.44
2022-07-26T08:42:27.988Z,19.28
2022-07-26T08:43:27.984Z,19.28
2022-07-26T08:44:27.965Z,19.28
2022-07-26T08:45:27.953Z,19.28
2022-07-26T08:46:28.376Z,19.28
2022-07-26T08:47:35.277Z,19.23
2022-07-26T08:48:27.939Z,19.07
2022-07-26T08:49:27.950Z,19.17
2022-07-26T08:50:27.890Z,19.39
2022-07-26T08:51:27.882Z,19.23
2022-07-26T08:52:27.874Z,19.23
2022-07-26T08:53:27.855Z,18.85
2022-07-26T08:54:27.836Z,19.28
2022-07-26T08:55:32.297Z,19.28
2022-07-26T08:56:27.813Z,19.28
2022-07-26T08:57:27.807Z,19.17
2022-07-26T08:58:27.806Z,19.23
2022-07-26T08:59:27.779Z,19.28
2022-07-26T09:00:27.813Z,19.07
2022-07-26T09:01:27.808Z,19.07
2022-07-26T09:02:27.742Z,19.12
2022-07-26T09:03:27.762Z,19.01
2022-07-26T09:04:32.584Z,19.01
2022-07-26T09:05:27.708Z,18.96
2022-07-26T09:06:28.228Z,18.91
2022-07-26T09:07:27.686Z,18.91
2022-07-26T09:08:27.671Z,19.12
2022-07-26T09:09:27.661Z,18.80
2022-07-26T09:10:27.653Z,19.01
2022-07-26T09:11:27.635Z,19.01
2022-07-26T09:12:27.622Z,19.01
2022-07-26T09:13:27.618Z,18.80
2022-07-26T09:14:27.602Z,18.96
2022-07-26T09:15:27.593Z,18.85
2022-07-26T09:16:27.664Z,18.85
2022-07-26T09:17:27.564Z,18.48
2022-07-26T09:18:27.556Z,18.91
2022-07-26T09:19:27.542Z,18.91
2022-07-26T09:20:27.965Z,18.80
2022-07-26T09:21:27.518Z,18.85
2022-07-26T09:22:27.510Z,18.96
2022-07-26T09:23:27.490Z,18.80
2022-07-26T09:24:27.479Z,18.91
2022-07-26T09:25:27.469Z,19.07
2022-07-26T09:26:27.456Z,18.91
2022-07-26T09:27:28.336Z,18.42
2022-07-26T09:28:27.439Z,18.85
2022-07-26T09:29:27.423Z,18.42
2022-07-26T09:30:27.414Z,18.48
2022-07-26T09:31:27.467Z,18.96
2022-07-26T09:32:27.391Z,19.01
2022-07-26T09:33:27.376Z,18.26
2022-07-26T09:34:27.365Z,18.91
2022-07-26T09:36:27.339Z,18.48
2022-07-26T09:37:27.320Z,18.53
2022-07-26T09:38:27.314Z,18.53
2022-07-26T09:39:33.875Z,18.32
2022-07-26T09:40:28.313Z,18.26
2022-07-26T09:41:27.298Z,18.26
2022-07-26T09:42:29.504Z,18.32
2022-07-26T09:43:27.259Z,18.26
2022-07-26T09:44:27.254Z,18.37
2022-07-26T09:45:27.230Z,18.26
2022-07-26T09:46:27.327Z,17.94
2022-07-26T09:47:27.207Z,18.26
2022-07-26T09:48:33.099Z,18.21
2022-07-26T09:49:39.954Z,18.53
2022-07-26T09:50:28.277Z,17.99
2022-07-26T09:51:27.167Z,18.32
2022-07-26T09:52:28.181Z,17.94
2022-07-26T09:53:27.141Z,18.10
2022-07-26T09:54:27.140Z,17.89
2022-07-26T09:55:31.077Z,17.78
2022-07-26T09:56:27.113Z,17.67
2022-07-26T09:57:27.091Z,17.94
2022-07-26T09:58:27.082Z,17.83
2022-07-26T09:59:27.071Z,17.94
2022-07-26T10:00:27.064Z,17.89
2022-07-26T10:01:27.140Z,17.72
2022-07-26T10:02:27.078Z,50.27
2022-07-26T10:03:27.029Z,50.22
2022-07-26T10:04:27.029Z,33.89
2022-07-26T10:05:27.009Z,29.33
2022-07-26T10:06:30.384Z,27.88
2022-07-26T10:07:26.983Z,27.02
2022-07-26T10:08:27.408Z,26.53
2022-07-26T10:09:26.955Z,26.05
2022-07-26T10:10:26.950Z,25.35
2022-07-26T10:11:26.949Z,25.14
2022-07-26T10:12:30.469Z,24.92
2022-07-26T10:13:26.914Z,24.76
2022-07-26T10:14:26.904Z,24.71
2022-07-26T10:15:26.885Z,24.12
2022-07-26T10:16:26.899Z,24.12
2022-07-26T10:17:30.938Z,23.69
2022-07-26T10:18:26.859Z,23.79
2022-07-26T10:19:26.845Z,23.10
2022-07-26T10:20:26.839Z,23.42
2022-07-26T10:21:26.818Z,23.36
2022-07-26T10:22:26.808Z,22.83
2022-07-26T10:23:26.795Z,22.77
2022-07-26T10:24:26.793Z,22.34
2022-07-26T10:25:26.776Z,22.83
2022-07-26T10:26:26.765Z,22.77
2022-07-26T10:27:26.751Z,22.34
2022-07-26T10:28:26.749Z,22.29
2022-07-26T10:29:26.902Z,22.45
2022-07-26T10:30:33.928Z,22.34
2022-07-26T10:31:26.767Z,22.02
2022-07-26T10:32:26.695Z,22.08
2022-07-26T10:33:26.679Z,22.08
2022-07-26T10:34:26.674Z,22.40
2022-07-26T10:35:26.662Z,21.97
2022-07-26T10:36:26.657Z,22.02
2022-07-26T10:37:26.640Z,21.48
2022-07-26T10:38:26.638Z,22.13
2022-07-26T10:39:26.613Z,22.02
2022-07-26T10:40:26.615Z,21.97
2022-07-26T10:41:26.601Z,21.32
2022-07-26T10:42:26.583Z,21.00
2022-07-26T10:43:42.830Z,21.05
2022-07-26T10:44:27.572Z,21.05
2022-07-26T10:45:26.536Z,21.05
2022-07-26T10:46:26.633Z,21.00
2022-07-26T10:47:26.514Z,21.38
2022-07-26T10:48:26.508Z,21.43
2022-07-26T10:49:26.495Z,21.05
2022-07-26T10:50:26.487Z,20.89
2022-07-26T10:51:26.472Z,21.00
2022-07-26T10:52:26.464Z,20.95
2022-07-26T10:53:26.444Z,20.62
2022-07-26T10:54:26.445Z,20.73
2022-07-26T10:55:26.422Z,21.00
2022-07-26T10:56:31.177Z,20.89
2022-07-26T10:57:27.428Z,20.73
2022-07-26T10:58:26.400Z,20.62
2022-07-26T10:59:53.334Z,20.68
2022-07-26T11:00:27.448Z,20.57
2022-07-26T11:01:26.380Z,20.73
2022-07-26T11:02:26.429Z,20.30
2022-07-26T11:03:26.338Z,20.20
2022-07-26T11:04:26.334Z,20.57
2022-07-26T11:05:26.309Z,20.62
2022-07-26T11:06:26.304Z,20.14
2022-07-26T11:07:26.292Z,20.20
2022-07-26T11:08:26.286Z,20.79
2022-07-26T11:09:26.273Z,20.25
2022-07-26T11:10:26.262Z,20.20
2022-07-26T11:11:26.248Z,20.30
2022-07-26T11:12:26.241Z,20.20
2022-07-26T11:13:26.234Z,19.77
2022-07-26T11:14:26.213Z,20.30
2022-07-26T11:15:26.197Z,20.30
2022-07-26T11:16:26.235Z,20.14
2022-07-26T11:17:26.173Z,20.03
2022-07-26T11:18:26.173Z,19.77
2022-07-26T11:19:26.211Z,19.87
2022-07-26T11:20:29.673Z,19.87
2022-07-26T11:21:26.143Z,20.14
2022-07-26T11:22:26.136Z,19.82
2022-07-26T11:23:26.112Z,20.03
2022-07-26T11:24:26.110Z,19.66
2022-07-26T11:25:26.092Z,19.87
2022-07-26T11:26:26.103Z,19.60
2022-07-26T11:27:26.076Z,19.82
2022-07-26T11:28:26.075Z,19.77
2022-07-26T11:29:26.044Z,19.98
2022-07-26T11:30:26.047Z,19.44
2022-07-26T11:31:28.978Z,19.71
2022-07-26T11:32:26.100Z,19.77
2022-07-26T11:33:26.008Z,19.87
2022-07-26T11:34:26.006Z,19.66
2022-07-26T11:35:30.145Z,19.71
2022-07-26T11:36:25.980Z,19.82
2022-07-26T11:37:25.969Z,19.93
2022-07-26T11:38:25.957Z,19.66
2022-07-26T11:39:25.945Z,19.60
2022-07-26T11:40:25.937Z,19.55
2022-07-26T11:41:34.226Z,19.50
2022-07-26T11:42:25.919Z,19.71
2022-07-26T11:43:25.897Z,19.60
2022-07-26T11:44:25.893Z,19.28
2022-07-26T11:45:25.870Z,19.23
2022-07-26T11:46:26.031Z,19.39
2022-07-26T11:47:26.715Z,19.66
2022-07-26T11:48:25.843Z,19.34
2022-07-26T11:49:51.845Z,19.71
2022-07-26T11:50:25.820Z,19.60
2022-07-26T11:51:25.923Z,19.66
2022-07-26T11:52:25.957Z,18.96
2022-07-26T11:53:25.794Z,19.34
2022-07-26T11:54:25.780Z,19.34
2022-07-26T11:55:25.777Z,19.01
2022-07-26T11:56:25.764Z,19.12
2022-07-26T11:57:25.744Z,19.07
2022-07-26T11:58:25.744Z,19.07
2022-07-26T11:59:25.716Z,18.96
2022-07-26T12:00:25.713Z,19.12
2022-07-26T12:01:25.703Z,19.28
2022-07-26T12:02:25.693Z,19.07
2022-07-26T12:03:25.687Z,19.12
2022-07-26T12:04:25.777Z,18.91
2022-07-26T12:05:25.821Z,19.01
2022-07-26T12:06:25.657Z,19.17
2022-07-26T12:07:25.641Z,19.17
2022-07-26T12:08:25.628Z,19.12
2022-07-26T12:09:25.614Z,18.80
2022-07-26T12:10:25.602Z,19.07
2022-07-26T12:11:25.682Z,19.12
2022-07-26T12:12:25.578Z,18.96
2022-07-26T12:13:25.670Z,18.85
2022-07-26T12:14:25.555Z,18.80
2022-07-26T12:15:25.641Z,18.96
2022-07-26T12:16:25.608Z,18.96
2022-07-26T12:17:25.518Z,19.39
2022-07-26T12:18:25.515Z,18.85
2022-07-26T12:19:25.503Z,18.69
2022-07-26T12:20:25.487Z,18.48
2022-07-26T12:21:25.478Z,19.01
2022-07-26T12:22:25.833Z,18.85
2022-07-26T12:23:25.454Z,18.91
2022-07-26T12:24:25.456Z,18.58
2022-07-26T12:25:25.425Z,18.26
2022-07-26T12:26:25.443Z,18.96
2022-07-26T12:27:25.405Z,18.48
2022-07-26T12:28:25.392Z,18.48
2022-07-26T12:29:25.383Z,18.48
2022-07-26T12:30:25.376Z,18.48
2022-07-26T12:31:25.506Z,18.42
2022-07-26T12:32:25.348Z,18.42
2022-07-26T12:33:25.338Z,18.32
2022-07-26T12:34:25.328Z,18.37
2022-07-26T12:35:25.313Z,18.26
2022-07-26T12:36:28.072Z,18.53
2022-07-26T12:37:33.758Z,18.42
2022-07-26T12:38:25.319Z,18.26
2022-07-26T12:39:25.269Z,17.67
2022-07-26T12:40:25.259Z,18.26
2022-07-26T12:41:25.246Z,18.26
2022-07-26T12:42:33.206Z,17.89
2022-07-26T12:43:26.265Z,18.21
2022-07-26T12:44:25.559Z,18.21
2022-07-26T12:45:25.196Z,17.89
2022-07-26T12:46:25.265Z,17.94
2022-07-26T12:47:25.187Z,18.37
2022-07-26T12:48:25.167Z,17.89
2022-07-26T12:49:25.242Z,17.89
2022-07-26T12:50:25.136Z,18.32
2022-07-26T12:51:25.126Z,17.89
2022-07-26T12:52:25.114Z,17.94
2022-07-26T12:53:25.098Z,17.89